An Xiu Shan — BRQV — position and weather

sailwx.info

Track history (hours):
 
Tides and Currents Weather Stations Pressure Air Temp Water Temp Dewpoint Dewpoint Depression Visibility Wind Speed Wind Dir Waves Ship Positions

An Xiu Shan

Last reported at 2018-Jul-17 01:43 UTC. Time now 2018-Jul-18 08:39 UTC.
Position N 38°40' E 118°47'.

Length 199 m; draft 7.1 m.

Type: Cargo ship. MMSI: 413195000.

Date/timePositionNaut miles runAvg speedWind from/ knotsBaromVisibWave heightAir tempDewpointWater temp
2018-Jul-17 01:43N 38°40' E 118°47'310.0
2018-Jul-17 01:25N 38°40' E 118°50'4410.1
2018-Jul-16 21:04N 38°41' E 119°47'310.8
2018-Jul-16 20:44N 38°40' E 119°51'510.9
2018-Jul-16 20:17N 38°40' E 119°58'310.9
2018-Jul-16 20:00N 38°40' E 120°02'611.2
2018-Jul-16 19:30N 38°40' E 120°09'611.9
2018-Jul-16 19:00N 38°40' E 120°16'612.3
2018-Jul-16 18:30N 38°39' E 120°24'3711.0
2018-Jul-16 15:11N 38°30' E 121°09'5411.1
2018-Jul-16 10:21N 37°60' E 122°06'40011.5
2018-Jul-14 23:39N 31°20' E 122°33'411.0
2018-Jul-14 23:18N 31°16' E 122°33'310.4
2018-Jul-14 23:00N 31°13' E 122°33'710.8
2018-Jul-14 22:23N 31°07' E 122°33'510.8
2018-Jul-14 21:54N 31°01' E 122°33'6 9.4
2018-Jul-14 21:14N 31°01' E 122°25'514.2
2018-Jul-14 20:54N 31°02' E 122°20'613.6
2018-Jul-14 20:28N 31°03' E 122°13'613.6
2018-Jul-14 20:00N 31°03' E 122°06'712.5
2018-Jul-14 19:29N 31°06' E 121°59'510.7
2018-Jul-14 19:00N 31°09' E 121°54'510.4
2018-Jul-14 18:30N 31°12' E 121°49'5 9.3
2018-Jul-14 17:59N 31°16' E 121°46'  
Track history (hours):
 
Tides and Currents Weather Stations Pressure Air Temp Water Temp Dewpoint Dewpoint Depression Visibility Wind Speed Wind Dir Waves Ship Positions

An Xiu Shan

Last reported at 2018-Jul-17 01:43 UTC. Time now 2018-Jul-18 08:39 UTC.
Position N 38°40' E 118°47'.

Length 199 m; draft 7.1 m.

Type: Cargo ship. MMSI: 413195000.

Date/timePositionNaut miles runAvg speedWind from/ knotsBaromVisibWave heightAir tempDewpointWater temp
2018-Jul-17 01:43N 38°40' E 118°47'310.0
2018-Jul-17 01:25N 38°40' E 118°50'4410.1
2018-Jul-16 21:04N 38°41' E 119°47'310.8
2018-Jul-16 20:44N 38°40' E 119°51'510.9
2018-Jul-16 20:17N 38°40' E 119°58'310.9
2018-Jul-16 20:00N 38°40' E 120°02'611.2
2018-Jul-16 19:30N 38°40' E 120°09'611.9
2018-Jul-16 19:00N 38°40' E 120°16'612.3
2018-Jul-16 18:30N 38°39' E 120°24'3711.0
2018-Jul-16 15:11N 38°30' E 121°09'5411.1
2018-Jul-16 10:21N 37°60' E 122°06'40011.5
2018-Jul-14 23:39N 31°20' E 122°33'411.0
2018-Jul-14 23:18N 31°16' E 122°33'310.4
2018-Jul-14 23:00N 31°13' E 122°33'710.8
2018-Jul-14 22:23N 31°07' E 122°33'510.8
2018-Jul-14 21:54N 31°01' E 122°33'6 9.4
2018-Jul-14 21:14N 31°01' E 122°25'514.2
2018-Jul-14 20:54N 31°02' E 122°20'613.6
2018-Jul-14 20:28N 31°03' E 122°13'613.6
2018-Jul-14 20:00N 31°03' E 122°06'712.5
2018-Jul-14 19:29N 31°06' E 121°59'510.7
2018-Jul-14 19:00N 31°09' E 121°54'510.4
2018-Jul-14 18:30N 31°12' E 121°49'5 9.3
2018-Jul-14 17:59N 31°16' E 121°46'  

Dump ship's entire track history